Time;durP1;ratioP1;P1;durP2;ratioP2;P2;SDS_P1;SDS_P2;PMS_P1;PMS_P2;Temp;Humidity;BMP_temperature;BMP_pressure;BME280_temperature;BME280_humidity;BME280_pressure;Samples;Min_cycle;Max_cycle;Signal;HPM_P1;HPM_P2
2023/07/16 17:10:15;;;;;;;20.88;4.68;;;25.30;52.40;;;;;;5114115;27;20445;-45
2023/07/16 17:12:41;;;;;;;16.60;4.13;;;25.70;47.20;;;;;;5109045;28;20036;-52
2023/07/16 17:15:07;;;;;;;14.02;4.30;;;25.70;47.10;;;;;;5108190;28;20036;-49
2023/07/16 17:17:33;;;;;;;10.30;3.80;;;25.60;47.60;;;;;;5107498;28;20118;-50
2023/07/16 17:19:59;;;;;;;14.05;4.00;;;25.60;48.40;;;;;;5108895;28;20132;-48
2023/07/16 17:22:26;;;;;;;11.15;4.25;;;25.60;50.50;;;;;;5130071;22;20076;-40
2023/07/16 17:24:52;;;;;;;10.75;3.90;;;25.60;49.80;;;;;;5109093;28;20031;-42
2023/07/16 17:27:18;;;;;;;13.90;4.50;;;25.50;50.20;;;;;;5125009;28;20046;-42
2023/07/16 17:29:44;;;;;;;7.00;3.70;;;25.60;52.00;;;;;;5108708;28;20545;-40
2023/07/16 17:32:10;;;;;;;9.85;4.30;;;25.50;51.50;;;;;;5109167;28;20511;-41
2023/07/16 17:34:38;;;;;;;14.73;4.30;;;25.50;51.40;;;;;;5110091;28;20368;-41
2023/07/16 17:37:04;;;;;;;7.70;4.07;;;25.50;51.60;;;;;;5108941;28;20032;-40
2023/07/16 17:39:30;;;;;;;7.80;3.85;;;25.50;52.20;;;;;;5108538;28;20555;-40
2023/07/16 17:41:56;;;;;;;10.07;3.92;;;25.50;52.70;;;;;;5108826;28;20439;-41
2023/07/16 17:44:22;;;;;;;9.63;4.05;;;25.50;52.50;;;;;;5108795;28;20020;-40
2023/07/16 17:46:47;;;;;;;6.60;4.10;;;25.50;52.70;;;;;;5108803;28;20027;-40
2023/07/16 17:49:13;;;;;;;7.25;3.67;;;25.50;52.80;;;;;;5108335;28;20027;-41
2023/07/16 17:51:39;;;;;;;5.43;3.35;;;25.50;52.90;;;;;;5108542;28;20498;-40
2023/07/16 17:54:05;;;;;;;8.15;4.25;;;25.50;53.00;;;;;;5108564;28;20040;-41
2023/07/16 17:56:31;;;;;;;7.75;4.00;;;25.50;53.20;;;;;;5108576;28;20035;-40
2023/07/16 17:58:57;;;;;;;6.90;3.65;;;25.50;53.30;;;;;;5108086;28;20076;-40
2023/07/16 18:01:22;;;;;;;7.53;3.30;;;25.50;53.40;;;;;;5108322;28;20023;-40
2023/07/16 18:03:48;;;;;;;9.57;3.58;;;25.50;53.50;;;;;;5108482;28;20020;-40
2023/07/16 18:06:14;;;;;;;6.78;3.58;;;25.50;53.60;;;;;;5108270;28;20398;-41
2023/07/16 18:08:42;;;;;;;6.13;3.60;;;25.50;53.70;;;;;;5108174;28;20024;-41
2023/07/16 18:11:08;;;;;;;5.97;3.50;;;25.50;53.70;;;;;;5095351;28;20035;-40
2023/07/16 18:13:33;;;;;;;7.47;3.67;;;25.60;53.80;;;;;;5094660;28;20368;-40
2023/07/16 18:15:59;;;;;;;8.63;3.90;;;25.60;53.90;;;;;;5094539;28;20035;-45
2023/07/16 18:18:25;;;;;;;6.85;3.38;;;25.50;53.90;;;;;;5094162;28;20085;-40
2023/07/16 18:20:51;;;;;;;6.55;3.42;;;25.50;54.00;;;;;;5094234;28;20029;-41
2023/07/16 18:23:17;;;;;;;7.00;3.58;;;25.60;54.00;;;;;;5094460;28;20027;-40
2023/07/16 18:25:43;;;;;;;7.63;3.55;;;25.50;54.00;;;;;;5094359;28;20032;-41
2023/07/16 18:28:09;;;;;;;6.43;3.38;;;25.60;54.30;;;;;;5094498;28;20051;-43
2023/07/16 18:30:34;;;;;;;8.85;3.83;;;25.60;54.20;;;;;;5093813;28;20028;-41
2023/07/16 18:33:00;;;;;;;6.93;3.60;;;25.60;54.40;;;;;;5094170;28;20441;-40
2023/07/16 18:35:26;;;;;;;6.50;3.58;;;25.60;54.30;;;;;;5094025;28;20062;-41
2023/07/16 18:37:52;;;;;;;6.00;3.53;;;25.60;54.40;;;;;;5093953;28;20024;-44
2023/07/16 18:40:18;;;;;;;6.40;3.30;;;25.60;54.50;;;;;;5093680;28;20077;-41
2023/07/16 18:42:45;;;;;;;8.63;3.63;;;25.60;54.50;;;;;;5093964;28;20024;-40
2023/07/16 18:45:11;;;;;;;5.95;3.20;;;25.60;54.50;;;;;;5093895;28;20119;-41
2023/07/16 18:47:37;;;;;;;5.72;3.50;;;25.60;54.50;;;;;;5093828;28;20020;-42
2023/07/16 18:50:04;;;;;;;7.57;3.50;;;25.60;54.50;;;;;;5093904;28;20418;-41
2023/07/16 18:52:30;;;;;;;7.15;3.33;;;25.60;54.60;;;;;;5109607;28;20024;-43
2023/07/16 18:54:56;;;;;;;7.75;3.38;;;25.50;54.60;;;;;;5093665;28;20395;-41
2023/07/16 18:57:25;;;;;;;5.68;3.42;;;25.50;54.60;;;;;;5093628;28;20024;-45
2023/07/16 18:59:51;;;;;;;7.80;3.10;;;25.60;54.70;;;;;;5093284;28;20062;-46
2023/07/16 19:02:17;;;;;;;6.18;3.33;;;25.50;54.70;;;;;;5093466;28;20024;-48
2023/07/16 19:04:43;;;;;;;6.13;3.38;;;25.50;55.30;;;;;;5092188;28;20069;-43
2023/07/16 19:07:09;;;;;;;6.20;3.50;;;25.50;54.80;;;;;;5093418;28;20035;-43
2023/07/16 19:09:35;;;;;;;8.00;3.40;;;25.50;54.80;;;;;;5093181;28;20031;-49
2023/07/16 19:12:00;;;;;;;7.57;3.20;;;25.50;54.80;;;;;;5093217;28;20443;-48
2023/07/16 19:14:26;;;;;;;8.30;3.45;;;25.50;54.80;;;;;;5093293;28;20050;-46
2023/07/16 19:16:52;;;;;;;6.53;3.67;;;25.50;54.80;;;;;;5093344;28;20081;-44
2023/07/16 19:19:18;;;;;;;7.82;3.10;;;25.50;54.90;;;;;;5092843;28;20508;-48
2023/07/16 19:21:44;;;;;;;6.28;2.95;;;25.50;54.90;;;;;;5092070;28;20392;-47
2023/07/16 19:24:11;;;;;;;6.38;3.15;;;25.50;55.00;;;;;;5093303;28;20089;-45
2023/07/16 19:26:37;;;;;;;5.78;2.90;;;25.50;54.90;;;;;;5093451;28;20050;-42
2023/07/16 19:29:03;;;;;;;6.38;3.38;;;25.50;55.00;;;;;;5092918;28;20474;-41
2023/07/16 19:31:29;;;;;;;5.88;3.13;;;25.50;55.00;;;;;;5093082;28;20028;-41
2023/07/16 19:33:55;;;;;;;7.38;3.22;;;25.50;55.00;;;;;;5085874;28;20050;-41
2023/07/16 19:36:22;;;;;;;6.28;3.20;;;25.50;55.10;;;;;;5086106;28;20032;-44
2023/07/16 19:38:47;;;;;;;7.18;3.70;;;25.50;55.40;;;;;;5092547;28;20513;-40
2023/07/16 19:41:13;;;;;;;16.75;3.80;;;25.50;53.00;;;;;;5088825;28;20028;-41
2023/07/16 19:43:39;;;;;;;8.20;3.60;;;25.50;52.60;;;;;;5092421;28;20020;-42
2023/07/16 19:46:06;;;;;;;12.23;3.75;;;25.50;53.90;;;;;;5093063;28;20020;-42
2023/07/16 19:48:33;;;;;;;9.52;3.58;;;25.50;53.90;;;;;;5093116;28;20089;-41
2023/07/16 19:51:01;;;;;;;9.75;3.42;;;25.40;52.80;;;;;;5092816;28;20035;-44
2023/07/16 19:53:27;;;;;;;14.52;4.20;;;25.40;52.00;;;;;;5093040;28;20150;-40
2023/07/16 19:55:56;;;;;;;10.20;4.07;;;25.40;50.30;;;;;;5092850;28;20113;-44
2023/07/16 19:58:23;;;;;;;9.65;4.03;;;25.40;52.60;;;;;;5092473;28;20032;-40
2023/07/16 20:00:50;;;;;;;12.00;4.40;;;25.30;51.80;;;;;;5092615;28;20029;-41
2023/07/16 20:03:15;;;;;;;12.10;4.32;;;25.30;51.10;;;;;;5092543;28;20568;-41
2023/07/16 20:05:43;;;;;;;9.05;4.28;;;25.30;51.10;;;;;;5092540;28;20035;-45
2023/07/16 20:08:16;;;;;;;10.48;4.28;;;25.30;51.30;;;;;;5092492;28;20032;-44
2023/07/16 20:10:45;;;;;;;10.52;4.50;;;25.30;51.80;;;;;;5092333;28;20038;-43
2023/07/16 20:13:12;;;;;;;10.60;5.43;;;25.30;50.70;;;;;;5092396;28;20380;-43
2023/07/16 20:15:38;;;;;;;10.18;4.88;;;25.30;50.40;;;;;;5092248;28;20035;-44
2023/07/16 20:18:10;;;;;;;9.43;5.18;;;25.30;49.80;;;;;;5092176;28;20047;-44
2023/07/16 20:20:36;;;;;;;10.63;5.20;;;25.30;50.10;;;;;;5091857;28;20020;-49
2023/07/16 20:23:02;;;;;;;11.27;5.60;;;25.30;49.90;;;;;;5092636;28;20489;-48
2023/07/16 20:25:28;;;;;;;10.85;5.40;;;25.30;48.50;;;;;;5090085;28;20487;-45
2023/07/16 20:27:55;;;;;;;12.95;5.45;;;25.30;47.50;;;;;;5081546;28;20054;-48
2023/07/16 20:30:25;;;;;;;13.43;5.43;;;25.30;49.40;;;;;;5085426;28;20024;-46
2023/07/16 20:32:52;;;;;;;11.52;5.10;;;25.30;48.40;;;;;;5089200;28;20043;-43
2023/07/16 20:35:18;;;;;;;12.48;4.78;;;25.30;49.40;;;;;;5091612;28;20032;-43
2023/07/16 20:37:44;;;;;;;12.00;4.72;;;25.30;49.20;;;;;;5091657;28;20111;-43
2023/07/16 20:40:11;;;;;;;7.57;4.32;;;25.30;49.00;;;;;;5091257;28;20036;-46
2023/07/16 20:42:41;;;;;;;11.13;4.78;;;25.30;49.60;;;;;;5091542;28;20020;-45
2023/07/16 20:45:33;;;;;;;9.68;4.82;;;25.30;48.70;;;;;;5086546;28;20016;-45
2023/07/16 20:48:00;;;;;;;11.43;5.78;;;25.30;48.60;;;;;;5086599;28;20074;-47
2023/07/16 20:50:28;;;;;;;10.88;5.30;;;25.30;49.20;;;;;;5087893;28;20510;-45
2023/07/16 20:52:55;;;;;;;8.75;5.30;;;25.30;49.40;;;;;;5091688;28;20095;-45
2023/07/16 20:55:22;;;;;;;14.48;5.50;;;25.30;49.50;;;;;;5082545;28;20028;-45
2023/07/16 20:57:50;;;;;;;23.45;5.80;;;25.30;48.80;;;;;;5083845;28;20029;-49
2023/07/16 21:00:17;;;;;;;11.27;5.63;;;25.30;48.10;;;;;;5085105;28;20503;-45
2023/07/16 21:02:51;;;;;;;12.50;6.32;;;25.30;48.00;;;;;;5083298;28;20020;-43
2023/07/16 21:05:18;;;;;;;13.23;6.63;;;25.20;48.30;;;;;;5088884;28;20031;-45
2023/07/16 21:07:48;;;;;;;12.18;6.55;;;25.20;48.70;;;;;;5088541;28;20557;-45
2023/07/16 21:10:14;;;;;;;12.98;6.15;;;25.20;49.10;;;;;;5084784;28;20024;-45
2023/07/16 21:12:41;;;;;;;12.48;6.72;;;25.20;48.80;;;;;;5088786;28;20434;-45
2023/07/16 21:15:11;;;;;;;15.00;7.28;;;25.20;47.90;;;;;;5088701;28;20084;-42
2023/07/16 21:17:37;;;;;;;;;;;25.20;48.40;;;;;;5089285;28;20032;-42
2023/07/16 21:20:04;;;;;;;11.13;5.72;;;25.20;48.40;;;;;;5085509;28;19912;-42
2023/07/16 21:22:31;;;;;;;14.45;6.00;;;25.20;48.40;;;;;;5082463;28;20043;-45
2023/07/16 21:24:57;;;;;;;10.20;6.05;;;25.20;48.70;;;;;;5088643;28;20031;-44
2023/07/16 21:27:25;;;;;;;9.73;6.13;;;25.20;48.50;;;;;;5088202;28;20074;-44
2023/07/16 21:29:53;;;;;;;10.60;6.00;;;25.20;48.10;;;;;;5084723;28;20114;-45
2023/07/16 21:32:20;;;;;;;12.20;5.60;;;25.10;47.90;;;;;;5088585;28;20040;-45
2023/07/16 21:34:47;;;;;;;10.48;5.80;;;25.10;48.10;;;;;;5088545;28;20114;-44
2023/07/16 21:37:13;;;;;;;13.55;5.70;;;25.10;48.10;;;;;;5085217;28;20024;-43
2023/07/16 21:39:39;;;;;;;13.10;5.55;;;25.10;48.10;;;;;;5087900;28;20028;-44
2023/07/16 21:42:06;;;;;;;11.18;5.15;;;25.10;48.50;;;;;;5088798;28;20741;-46
2023/07/16 21:44:31;;;;;;;8.98;5.15;;;25.10;47.50;;;;;;5086605;28;20085;-42
2023/07/16 21:46:58;;;;;;;12.98;5.38;;;25.10;47.70;;;;;;5091415;28;20052;-44
2023/07/16 21:49:24;;;;;;;11.07;5.90;;;25.10;47.70;;;;;;5087617;28;20028;-43
2023/07/16 21:51:54;;;;;;;10.18;5.80;;;25.10;47.50;;;;;;5089769;28;20032;-43
2023/07/16 21:54:19;;;;;;;;;;;25.10;47.50;;;;;;5091119;28;20028;-43
2023/07/16 21:56:45;;;;;;;9.65;5.85;;;25.10;47.60;;;;;;5092415;28;19930;-48
2023/07/16 21:59:11;;;;;;;12.27;5.43;;;25.10;47.60;;;;;;5090667;28;20032;-42
2023/07/16 22:01:37;;;;;;;9.18;5.47;;;25.10;47.90;;;;;;5094931;28;20031;-43
2023/07/16 22:04:05;;;;;;;11.38;5.10;;;25.10;47.80;;;;;;5093150;28;20467;-43
2023/07/16 22:06:31;;;;;;;12.18;5.43;;;25.10;47.70;;;;;;5092013;28;20024;-43
2023/07/16 22:08:57;;;;;;;10.10;5.15;;;25.10;47.40;;;;;;5087825;28;20120;-46
2023/07/16 22:11:23;;;;;;;11.68;5.65;;;25.00;47.70;;;;;;5091877;28;20107;-41
2023/07/16 22:13:48;;;;;;;15.00;5.93;;;25.00;47.70;;;;;;5091841;28;20036;-41
2023/07/16 22:16:18;;;;;;;8.73;4.45;;;25.00;47.60;;;;;;5090739;28;20064;-42
2023/07/16 22:18:44;;;;;;;15.45;5.15;;;25.00;47.30;;;;;;5090755;28;20036;-41
2023/07/16 22:21:10;;;;;;;11.02;5.57;;;25.00;47.70;;;;;;5091549;28;20490;-41
2023/07/16 22:23:36;;;;;;;13.57;5.88;;;25.00;48.20;;;;;;5092008;28;20032;-44
2023/07/16 22:26:02;;;;;;;11.73;5.63;;;25.00;47.40;;;;;;5089957;28;20024;-41
2023/07/16 22:28:28;;;;;;;14.35;5.97;;;25.00;47.60;;;;;;5088561;28;20081;-42
2023/07/16 22:30:54;;;;;;;10.73;5.95;;;25.00;47.60;;;;;;5087585;28;20537;-42
2023/07/16 22:33:20;;;;;;;10.75;6.40;;;25.00;47.50;;;;;;5085935;28;20028;-42
2023/07/16 22:35:46;;;;;;;10.73;5.88;;;25.00;47.80;;;;;;5085890;28;20028;-41
2023/07/16 22:38:12;;;;;;;11.32;5.63;;;25.00;47.20;;;;;;5106849;28;20227;-42
2023/07/16 22:40:37;;;;;;;10.13;5.80;;;25.00;48.40;;;;;;5090334;28;20108;-44
2023/07/16 22:43:03;;;;;;;12.98;5.60;;;25.00;47.50;;;;;;5090438;28;20103;-41
2023/07/16 22:45:30;;;;;;;10.35;5.75;;;25.00;48.10;;;;;;5090290;28;20032;-41
2023/07/16 22:47:56;;;;;;;14.40;5.95;;;25.00;48.20;;;;;;5085536;28;20491;-41
2023/07/16 22:50:22;;;;;;;10.77;5.20;;;25.00;48.40;;;;;;5086234;28;20048;-48
2023/07/16 22:52:48;;;;;;;17.40;5.55;;;25.00;48.30;;;;;;5088308;28;20519;-44
2023/07/16 22:55:14;;;;;;;13.27;5.80;;;25.00;48.60;;;;;;5092410;28;20024;-42
2023/07/16 22:57:40;;;;;;;10.93;4.78;;;25.00;48.50;;;;;;5093419;28;20544;-41
2023/07/16 23:00:08;;;;;;;12.70;4.65;;;25.00;48.20;;;;;;5093146;28;20062;-42
2023/07/16 23:02:34;;;;;;;10.65;4.60;;;25.00;48.20;;;;;;5089203;28;20031;-43
2023/07/16 23:05:00;;;;;;;10.27;4.72;;;25.00;48.20;;;;;;5093506;28;20487;-42
2023/07/16 23:07:26;;;;;;;9.10;4.68;;;25.00;48.30;;;;;;5091309;28;20129;-42
2023/07/16 23:09:52;;;;;;;9.05;4.80;;;25.00;48.60;;;;;;5091111;28;20439;-43
2023/07/16 23:12:19;;;;;;;13.45;5.88;;;25.00;49.00;;;;;;5081323;28;20024;-41
2023/07/16 23:14:45;;;;;;;19.77;5.78;;;25.00;48.20;;;;;;5092827;28;20039;-43
2023/07/16 23:17:10;;;;;;;14.70;5.88;;;25.00;48.00;;;;;;5084438;28;20028;-41
2023/07/16 23:19:36;;;;;;;13.82;5.43;;;25.00;48.40;;;;;;5084508;28;20081;-41
2023/07/16 23:22:03;;;;;;;9.85;5.35;;;25.00;48.50;;;;;;5091500;28;20483;-42
2023/07/16 23:24:31;;;;;;;9.88;4.80;;;25.00;48.40;;;;;;5115349;22;20067;-48
2023/07/16 23:26:57;;;;;;;9.13;5.00;;;25.00;48.50;;;;;;5075647;28;20383;-46
2023/07/16 23:29:23;;;;;;;9.68;4.65;;;25.00;48.40;;;;;;5093650;28;20443;-47
2023/07/16 23:31:48;;;;;;;10.48;4.50;;;25.00;48.70;;;;;;5093282;28;20062;-48
2023/07/16 23:34:14;;;;;;;12.00;4.65;;;25.00;48.80;;;;;;5079559;28;20054;-48
2023/07/16 23:36:40;;;;;;;10.80;4.70;;;25.00;48.60;;;;;;5074930;28;20429;-48
2023/07/16 23:39:06;;;;;;;14.32;4.97;;;25.00;48.60;;;;;;5071596;28;20028;-46
2023/07/16 23:41:32;;;;;;;12.50;4.63;;;25.00;48.70;;;;;;5073181;28;20016;-50
2023/07/16 23:43:57;;;;;;;13.98;4.90;;;25.00;48.90;;;;;;5073377;28;20378;-48
2023/07/16 23:46:23;;;;;;;9.23;5.05;;;25.00;49.20;;;;;;5072476;28;20028;-47
2023/07/16 23:48:49;;;;;;;11.55;5.00;;;25.00;49.10;;;;;;5072322;28;20073;-49
2023/07/16 23:51:15;;;;;;;9.18;4.38;;;25.00;49.10;;;;;;5071956;28;20029;-47
2023/07/16 23:53:40;;;;;;;13.73;4.47;;;25.00;49.30;;;;;;5072890;28;20036;-48
2023/07/16 23:56:06;;;;;;;9.65;4.07;;;25.00;49.10;;;;;;5072150;28;20173;-49
2023/07/16 23:58:32;;;;;;;8.95;4.30;;;25.00;48.90;;;;;;5072205;28;20024;-50
